createdAt,value
2022-08-05T00:00:30.028Z,0.4
2022-08-05T00:01:35.790Z,0.45
2022-08-05T00:02:34.043Z,0.23
2022-08-05T00:03:36.011Z,0.29
2022-08-05T00:04:38.025Z,0.26
2022-08-05T00:06:03.423Z,0.3
2022-08-05T00:06:42.012Z,0.25
2022-08-05T00:07:59.490Z,0.45
2022-08-05T00:08:46.003Z,0.34
2022-08-05T00:09:48.025Z,0.28
2022-08-05T00:10:50.046Z,0.22
2022-08-05T00:11:55.579Z,0.33
2022-08-05T00:12:57.092Z,0.28
2022-08-05T00:14:00.016Z,0.4
2022-08-05T00:15:40.728Z,0.32
2022-08-05T00:16:04.043Z,0.41
2022-08-05T00:17:06.093Z,0.42
2022-08-05T00:18:08.021Z,0.31
2022-08-05T00:19:10.019Z,0.35
2022-08-05T00:20:12.030Z,0.32
2022-08-05T00:21:14.346Z,0.32
2022-08-05T00:22:16.090Z,0.31
2022-08-05T00:23:30.940Z,0.21
2022-08-05T00:24:24.167Z,0.33
2022-08-05T00:25:22.079Z,0.3
2022-08-05T00:26:24.026Z,0.31
2022-08-05T00:27:28.640Z,0.26
2022-08-05T00:28:29.410Z,0.28
2022-08-05T00:29:32.990Z,0.18
2022-08-05T00:30:32.224Z,0.23
2022-08-05T00:31:41.273Z,0.15
2022-08-05T00:32:36.061Z,0.27
2022-08-05T00:34:43.030Z,0.2
2022-08-05T00:34:43.335Z,0.2
2022-08-05T00:35:47.873Z,0.27
2022-08-05T00:37:09.573Z,0.33
2022-08-05T00:37:51.517Z,0.28
2022-08-05T00:38:48.059Z,0.24
2022-08-05T00:39:57.621Z,0.34
2022-08-05T00:40:53.375Z,0.23
2022-08-05T00:41:55.354Z,0.25
2022-08-05T00:42:56.067Z,0.4
2022-08-05T00:43:58.057Z,0.29
2022-08-05T00:45:00.101Z,0.46
2022-08-05T00:46:02.084Z,0.37
2022-08-05T00:47:05.675Z,0.4
2022-08-05T00:48:06.402Z,0.43
2022-08-05T00:49:08.115Z,0.35
2022-08-05T00:50:10.078Z,0.3
2022-08-05T00:51:51.295Z,0.29
2022-08-05T00:52:14.096Z,0.31
2022-08-05T00:53:45.727Z,0.29
2022-08-05T00:54:18.107Z,0.34
2022-08-05T00:55:20.134Z,0.24
2022-08-05T00:56:22.666Z,0.3
2022-08-05T00:57:24.284Z,0.15
2022-08-05T00:58:27.151Z,0.14
2022-08-05T00:59:34.661Z,0.15
2022-08-05T01:00:30.148Z,0.14
2022-08-05T01:01:42.360Z,0.16
2022-08-05T01:02:34.123Z,0.29
2022-08-05T01:03:36.119Z,0.19
2022-08-05T01:04:38.112Z,0.29
2022-08-05T01:05:40.096Z,0.27
2022-08-05T01:06:43.680Z,0.28
2022-08-05T01:08:30.521Z,0.25
2022-08-05T01:08:47.356Z,0.18
2022-08-05T01:09:55.624Z,0.27
2022-08-05T01:10:51.468Z,0.11
2022-08-05T01:11:52.557Z,0.11
2022-08-05T01:12:54.308Z,0.35
2022-08-05T01:13:58.090Z,0.27
2022-08-05T01:14:58.126Z,0.26
2022-08-05T01:16:00.269Z,0.23
2022-08-05T01:17:02.155Z,0.19
2022-08-05T01:18:04.119Z,0.26
2022-08-05T01:19:06.175Z,0.22
2022-08-05T01:20:08.126Z,0
2022-08-05T01:21:10.145Z,0.2
2022-08-05T01:22:15.602Z,0.16
2022-08-05T01:23:14.468Z,0
2022-08-05T01:24:16.203Z,0.35
2022-08-05T01:25:18.131Z,0.22
2022-08-05T01:26:20.148Z,0.35
2022-08-05T01:27:22.437Z,0.34
2022-08-05T01:28:24.147Z,0.33
2022-08-05T01:29:26.196Z,0.14
2022-08-05T01:30:34.412Z,0.28
2022-08-05T01:31:30.395Z,0.32
2022-08-05T01:32:32.159Z,0.41
2022-08-05T01:33:35.255Z,0.31
2022-08-05T01:34:36.390Z,0.2
2022-08-05T01:35:50.385Z,0.09
2022-08-05T01:36:42.261Z,0.25
2022-08-05T01:37:44.459Z,0.21
2022-08-05T01:38:44.202Z,0.31
2022-08-05T01:39:47.798Z,0.27
2022-08-05T01:40:48.169Z,0.27
2022-08-05T01:41:50.632Z,0.29
2022-08-05T01:42:52.197Z,0.29
2022-08-05T01:43:54.197Z,0.37
2022-08-05T01:44:56.196Z,0.13
2022-08-05T01:45:58.172Z,0.28
2022-08-05T01:47:00.389Z,0.31
2022-08-05T01:48:02.248Z,0.34
2022-08-05T01:49:12.244Z,0.2
2022-08-05T01:50:06.180Z,0.16
2022-08-05T01:51:08.675Z,0.16
2022-08-05T01:52:12.455Z,0.33
2022-08-05T01:53:12.185Z,0.23
2022-08-05T01:54:14.215Z,0.25
2022-08-05T01:55:16.225Z,0.3
2022-08-05T01:58:08.430Z,0.28
2022-08-05T01:58:08.817Z,0.34
2022-08-05T01:58:30.120Z,0.32
2022-08-05T01:59:24.220Z,0.32
2022-08-05T02:00:30.210Z,0.32
2022-08-05T02:01:28.210Z,0.29
2022-08-05T02:02:30.242Z,0.35
2022-08-05T02:03:34.035Z,0.32
2022-08-05T02:04:34.271Z,0.19
2022-08-05T02:05:36.637Z,0.25
2022-08-05T02:06:38.896Z,0.26
2022-08-05T02:07:40.799Z,0.33
2022-08-05T02:08:44.805Z,0.28
2022-08-05T02:09:44.215Z,0.33
2022-08-05T02:10:46.802Z,0.26
2022-08-05T02:11:52.193Z,0.23
2022-08-05T02:12:50.964Z,0.33
2022-08-05T02:13:53.927Z,0.29
2022-08-05T02:14:54.212Z,0.11
2022-08-05T02:15:56.260Z,0
2022-08-05T02:16:58.226Z,0.36
2022-08-05T02:18:27.690Z,0.31
2022-08-05T02:19:02.266Z,0.36
2022-08-05T02:20:04.253Z,0.11
2022-08-05T02:21:06.275Z,0.2
2022-08-05T02:22:08.223Z,0
2022-08-05T02:23:10.223Z,0
2022-08-05T02:24:12.229Z,0
2022-08-05T02:25:14.270Z,0.2
2022-08-05T02:26:17.149Z,0
2022-08-05T02:27:18.274Z,0
2022-08-05T02:28:28.272Z,0.38
2022-08-05T02:29:24.189Z,0.26
2022-08-05T02:30:24.275Z,0.32
2022-08-05T02:31:26.253Z,0.28
2022-08-05T02:32:29.291Z,0.31
2022-08-05T02:33:35.666Z,0.23
2022-08-05T02:34:32.239Z,0.19
2022-08-05T02:35:37.871Z,0
2022-08-05T02:36:36.249Z,0.11
2022-08-05T02:37:38.296Z,0
2022-08-05T02:38:40.798Z,0.13
2022-08-05T02:39:42.363Z,0.25
2022-08-05T02:40:44.251Z,0.13
2022-08-05T02:41:57.710Z,0.27
2022-08-05T02:42:52.611Z,0.11
2022-08-05T02:44:03.052Z,0
2022-08-05T02:44:52.259Z,0
2022-08-05T02:45:54.337Z,0
2022-08-05T02:46:59.687Z,0
2022-08-05T02:47:58.936Z,0
2022-08-05T02:49:00.264Z,0
2022-08-05T02:50:02.414Z,0
2022-08-05T02:51:04.344Z,0
2022-08-05T02:52:06.286Z,0
2022-08-05T02:53:11.643Z,0.17
2022-08-05T02:54:10.333Z,0
2022-08-05T02:55:12.403Z,0
2022-08-05T02:56:15.660Z,0
2022-08-05T02:58:08.923Z,0
2022-08-05T02:58:20.282Z,0
2022-08-05T02:59:20.318Z,0.25
2022-08-05T03:00:22.333Z,0.08
2022-08-05T03:01:24.407Z,0.14
2022-08-05T03:02:27.375Z,0.29
2022-08-05T03:03:28.335Z,0.14
2022-08-05T03:04:30.859Z,0
2022-08-05T03:06:52.853Z,0.16
2022-08-05T03:06:52.858Z,0.2
2022-08-05T03:07:40.872Z,0
2022-08-05T03:08:42.496Z,0.19
2022-08-05T03:09:51.563Z,0
2022-08-05T03:11:02.319Z,0.13
2022-08-05T03:11:54.014Z,0
2022-08-05T03:12:49.464Z,0
2022-08-05T03:14:02.610Z,0
2022-08-05T03:14:53.306Z,0
2022-08-05T03:15:55.390Z,0
2022-08-05T03:16:57.327Z,0
2022-08-05T03:17:59.545Z,0
2022-08-05T03:19:01.386Z,0
2022-08-05T03:20:03.367Z,0
2022-08-05T03:21:05.328Z,0.35
2022-08-05T03:22:16.168Z,0.2
2022-08-05T03:23:09.315Z,0.24
2022-08-05T03:24:11.399Z,0.17
2022-08-05T03:25:32.153Z,0.13
2022-08-05T03:26:30.051Z,0.32
2022-08-05T03:27:17.379Z,0.14
2022-08-05T03:28:19.764Z,0
2022-08-05T03:29:21.373Z,0
2022-08-05T03:30:28.642Z,0
2022-08-05T03:31:41.514Z,0
2022-08-05T03:32:28.704Z,0.31
2022-08-05T03:33:32.168Z,0.23
2022-08-05T03:34:31.380Z,0
2022-08-05T03:35:33.655Z,0
2022-08-05T03:36:35.365Z,0.19
2022-08-05T03:37:45.953Z,0.22
2022-08-05T03:38:41.240Z,0.64
2022-08-05T03:39:47.289Z,0.54
2022-08-05T03:40:47.431Z,0.55
2022-08-05T03:41:47.359Z,0.58
2022-08-05T03:42:52.333Z,0.38
2022-08-05T03:43:59.486Z,0.69
2022-08-05T03:44:53.375Z,0.2
2022-08-05T03:45:58.452Z,0.47
2022-08-05T03:46:57.360Z,0.26
2022-08-05T03:47:59.462Z,0.26
2022-08-05T03:49:01.805Z,0.23
2022-08-05T03:50:03.397Z,0.2
2022-08-05T03:52:35.652Z,0.66
2022-08-05T03:52:35.875Z,0.29
2022-08-05T03:54:58.790Z,0.51
2022-08-05T03:55:00.864Z,0.46
2022-08-05T03:55:51.489Z,0.45
2022-08-05T03:56:18.131Z,0.36
2022-08-05T03:57:18.005Z,0.56
2022-08-05T03:58:19.443Z,0.45
2022-08-05T03:59:21.386Z,0.41
2022-08-05T04:00:23.419Z,0.72
2022-08-05T04:01:25.873Z,0.71
2022-08-05T04:02:34.825Z,0.36
2022-08-05T04:03:29.468Z,0.22
2022-08-05T04:04:31.446Z,0.82
2022-08-05T04:05:34.404Z,0.76
2022-08-05T04:06:35.399Z,0.5
2022-08-05T04:07:53.112Z,0.53
2022-08-05T04:08:39.397Z,0.4
2022-08-05T04:09:53.382Z,0.47
2022-08-05T04:10:43.410Z,0.56
2022-08-05T04:11:47.060Z,0.65
2022-08-05T04:12:47.402Z,0.58
2022-08-05T04:13:53.527Z,0.24
2022-08-05T04:14:51.477Z,0.22
2022-08-05T04:16:03.401Z,0.66
2022-08-05T04:16:55.413Z,0.48
2022-08-05T04:17:59.919Z,0.97
2022-08-05T04:19:00.018Z,0.52
2022-08-05T04:20:01.487Z,0.37
2022-08-05T04:21:03.959Z,0.66
2022-08-05T04:22:10.454Z,0.39
2022-08-05T04:23:07.427Z,0.26
2022-08-05T04:24:15.011Z,0.54
2022-08-05T04:25:11.517Z,0.84
2022-08-05T04:26:13.601Z,0.67
2022-08-05T04:27:15.486Z,0.77
2022-08-05T04:28:17.492Z,0.76
2022-08-05T04:29:19.749Z,0.77
2022-08-05T04:30:21.524Z,0.85
2022-08-05T04:31:23.457Z,1.07
2022-08-05T04:32:30.898Z,1.01
2022-08-05T04:33:55.047Z,0.76
2022-08-05T04:34:33.205Z,0.62
2022-08-05T04:36:09.546Z,1.02
2022-08-05T04:36:46.668Z,0.79
2022-08-05T04:38:00.818Z,0.8
2022-08-05T04:38:39.410Z,0.67
2022-08-05T04:39:40.059Z,0.52
2022-08-05T04:40:41.652Z,0.56
2022-08-05T04:41:43.474Z,0.55
2022-08-05T04:42:45.467Z,0.48
2022-08-05T04:43:48.269Z,0.49
2022-08-05T04:44:49.467Z,0.61
2022-08-05T04:45:54.713Z,0.5
2022-08-05T04:46:53.470Z,0.56
2022-08-05T04:47:55.495Z,1.03
2022-08-05T04:48:58.801Z,0.69
2022-08-05T04:50:02.216Z,0.73
2022-08-05T04:51:03.177Z,1.09
2022-08-05T04:52:03.523Z,0.76
2022-08-05T04:53:05.492Z,0.58
2022-08-05T04:54:07.483Z,0.69
2022-08-05T04:55:14.120Z,0.51
2022-08-05T04:56:15.710Z,0.93
2022-08-05T04:57:13.478Z,1.02
2022-08-05T04:58:15.512Z,1.17
2022-08-05T04:59:22.576Z,0.99
2022-08-05T05:00:19.488Z,1.72
2022-08-05T05:01:33.980Z,0.88
2022-08-05T05:02:36.054Z,0.57
2022-08-05T05:03:25.507Z,0.62
2022-08-05T05:04:27.564Z,0.57
2022-08-05T05:05:29.527Z,0.87
2022-08-05T05:06:36.244Z,0.71
2022-08-05T05:07:35.279Z,0.79
2022-08-05T05:08:35.499Z,1.25
2022-08-05T05:09:38.064Z,0.58
2022-08-05T05:10:39.596Z,1.25
2022-08-05T05:11:54.229Z,0.96
2022-08-05T05:12:43.515Z,0.55
2022-08-05T05:13:45.504Z,0.4
2022-08-05T05:14:49.247Z,0.43
2022-08-05T05:15:54.549Z,0.8
2022-08-05T05:16:51.526Z,0.7
2022-08-05T05:17:55.459Z,1.45
2022-08-05T05:19:16.727Z,1.12
2022-08-05T05:19:57.494Z,0.8
2022-08-05T05:20:59.563Z,1.08
2022-08-05T05:22:03.706Z,0.74
2022-08-05T05:23:08.036Z,0.54
2022-08-05T05:24:08.778Z,0.94
2022-08-05T05:25:16.333Z,0.99
2022-08-05T05:26:09.585Z,0.91
2022-08-05T05:27:11.552Z,0.77
2022-08-05T05:28:13.566Z,0.57
2022-08-05T05:29:15.575Z,0.29
2022-08-05T05:30:28.946Z,1.17
2022-08-05T05:31:19.611Z,0.72
2022-08-05T05:32:21.564Z,0.42
2022-08-05T05:33:23.841Z,0.95
2022-08-05T05:34:26.860Z,1.52
2022-08-05T05:35:27.565Z,1.79
2022-08-05T05:36:29.689Z,1.31
2022-08-05T05:37:37.408Z,0.59
2022-08-05T05:38:33.566Z,0.39
2022-08-05T05:39:36.053Z,0.74
2022-08-05T05:40:38.879Z,1.57
2022-08-05T05:41:41.854Z,1.4
2022-08-05T05:42:43.135Z,1.1
2022-08-05T05:43:56.570Z,1.08
2022-08-05T05:44:46.561Z,0.76
2022-08-05T05:45:48.601Z,0.54
2022-08-05T05:46:51.141Z,0.48
2022-08-05T05:48:05.950Z,0.56
2022-08-05T05:48:54.644Z,0.61
2022-08-05T05:50:01.364Z,0.61
2022-08-05T05:50:59.398Z,0.39
2022-08-05T05:52:05.781Z,0.4
2022-08-05T05:53:03.589Z,0.46
2022-08-05T05:54:06.490Z,0.83
2022-08-05T05:55:13.175Z,0.98
2022-08-05T05:56:10.995Z,0.85
2022-08-05T05:57:13.665Z,1.35
2022-08-05T05:58:14.628Z,0.9
2022-08-05T05:59:16.575Z,0.76
2022-08-05T06:00:18.609Z,0.78
2022-08-05T06:01:23.410Z,0.98
2022-08-05T06:02:25.325Z,1.18
2022-08-05T06:03:28.476Z,1.22
2022-08-05T06:04:26.837Z,0.7
2022-08-05T06:05:29.766Z,0.53
2022-08-05T06:06:33.279Z,0.47
2022-08-05T06:07:41.496Z,0.64
2022-08-05T06:08:35.629Z,1.08
2022-08-05T06:09:51.313Z,1.33
2022-08-05T06:10:49.270Z,0.7
2022-08-05T06:11:41.613Z,1.95
2022-08-05T06:12:43.615Z,1.32
2022-08-05T06:13:50.349Z,1.11
2022-08-05T06:14:47.658Z,0.74
2022-08-05T06:16:27.835Z,0.97
2022-08-05T06:16:51.628Z,1.67
2022-08-05T06:17:54.495Z,2.31
2022-08-05T06:18:55.773Z,2.34
2022-08-05T06:19:59.674Z,1.68
2022-08-05T06:20:59.986Z,2.73
2022-08-05T06:22:01.739Z,1.79
2022-08-05T06:23:04.092Z,2.88
2022-08-05T06:24:05.889Z,1.35
2022-08-05T06:25:24.805Z,0.32
2022-08-05T06:26:13.974Z,0.99
2022-08-05T06:27:13.108Z,1.26
2022-08-05T06:28:21.033Z,2.29
2022-08-05T06:29:24.836Z,1.66
2022-08-05T06:30:20.193Z,1.02
2022-08-05T06:31:21.830Z,1.47
2022-08-05T06:32:26.526Z,1.61
2022-08-05T06:33:33.215Z,1.25
2022-08-05T06:34:26.483Z,1.58
2022-08-05T06:36:04.307Z,1.23
2022-08-05T06:36:29.648Z,2.4
2022-08-05T06:37:57.145Z,1.43
2022-08-05T06:38:35.742Z,1.1
2022-08-05T06:39:35.819Z,2.75
2022-08-05T06:40:37.697Z,2.05
2022-08-05T06:41:40.594Z,2.22
2022-08-05T06:42:41.766Z,1.15
2022-08-05T06:43:52.038Z,1.78
2022-08-05T06:44:45.691Z,2.5
2022-08-05T06:46:04.299Z,2.46
2022-08-05T06:46:51.002Z,1.37
2022-08-05T06:48:12.065Z,1.09
2022-08-05T06:48:56.530Z,1.18
2022-08-05T06:49:59.995Z,0.39
2022-08-05T06:50:58.078Z,0.51
2022-08-05T06:52:00.045Z,1.04
2022-08-05T06:53:04.100Z,1.09
2022-08-05T06:54:03.719Z,0.93
2022-08-05T06:55:05.710Z,1.2
2022-08-05T06:56:07.691Z,1.62
2022-08-05T06:57:14.119Z,0.5
2022-08-05T06:58:20.486Z,0.61
2022-08-05T06:59:13.701Z,0.76
2022-08-05T07:00:22.350Z,0.63
2022-08-05T07:01:20.873Z,0.59
2022-08-05T07:02:22.715Z,0.81
2022-08-05T07:03:21.734Z,2.02
2022-08-05T07:04:23.686Z,0.96
2022-08-05T07:05:27.792Z,1.02
2022-08-05T07:06:27.892Z,0.93
2022-08-05T07:07:35.700Z,0.87
2022-08-05T07:08:32.192Z,1.04
2022-08-05T07:09:37.421Z,0.77
2022-08-05T07:10:35.122Z,1.03
2022-08-05T07:11:39.735Z,1.22
2022-08-05T07:12:38.147Z,0.7
2022-08-05T07:13:57.386Z,0.71
2022-08-05T07:14:41.132Z,0.61
2022-08-05T07:16:00.655Z,0.96
2022-08-05T07:17:56.099Z,1.11
2022-08-05T07:17:57.886Z,0.16
2022-08-05T07:18:48.054Z,0.19
2022-08-05T07:20:50.147Z,1.31
2022-08-05T07:21:59.683Z,1.58
2022-08-05T07:22:54.726Z,0.93
2022-08-05T07:23:56.731Z,1.54
2022-08-05T07:24:58.740Z,1.39
2022-08-05T07:26:00.144Z,1.77
2022-08-05T07:27:01.166Z,0.97
2022-08-05T07:28:05.469Z,1.1
2022-08-05T07:29:03.744Z,2.51
2022-08-05T07:30:22.678Z,1.39
2022-08-05T07:31:07.480Z,1.35
2022-08-05T07:32:09.186Z,1.18
2022-08-05T07:33:15.829Z,1.63
2022-08-05T07:34:11.214Z,1.72
2022-08-05T07:35:56.467Z,1.24
2022-08-05T07:36:19.787Z,1.14
2022-08-05T07:37:14.315Z,1.17
2022-08-05T07:38:26.624Z,1.1
2022-08-05T07:39:24.568Z,0.9
2022-08-05T07:40:27.178Z,0.68
2022-08-05T07:41:35.308Z,1.69
2022-08-05T07:42:31.641Z,1.18
2022-08-05T07:43:21.918Z,1.91
2022-08-05T07:44:23.835Z,1.45
2022-08-05T07:45:31.153Z,1.28
2022-08-05T07:46:26.657Z,0.63
2022-08-05T07:47:27.163Z,1.99
2022-08-05T07:49:01.100Z,1.22
2022-08-05T07:49:30.230Z,1.62
2022-08-05T07:50:32.610Z,0.76
2022-08-05T07:51:36.573Z,0.57
2022-08-05T07:52:33.183Z,0.47
2022-08-05T07:53:36.775Z,0.99
2022-08-05T07:54:38.726Z,1.44
2022-08-05T07:55:44.741Z,1.24
2022-08-05T07:56:39.565Z,1.33
2022-08-05T07:57:42.242Z,0.66
2022-08-05T07:58:54.561Z,1.73
2022-08-05T07:59:41.186Z,1.87
2022-08-05T08:00:41.249Z,1.59
2022-08-05T08:01:51.900Z,1.04
2022-08-05T08:03:13.527Z,2.54
2022-08-05T08:03:45.047Z,1.42
2022-08-05T08:04:46.046Z,0.8
2022-08-05T08:05:49.541Z,1.53
2022-08-05T08:06:48.214Z,1.87
2022-08-05T08:07:59.362Z,0.9
2022-08-05T08:08:50.225Z,0.9
2022-08-05T08:09:52.191Z,0.6
2022-08-05T08:10:52.302Z,1.5
2022-08-05T08:11:54.342Z,1.28
2022-08-05T08:12:54.219Z,0.89
2022-08-05T08:14:00.396Z,0.67
2022-08-05T08:14:56.227Z,1.29
2022-08-05T08:16:36.007Z,1.44
2022-08-05T08:16:58.215Z,1.89
2022-08-05T08:17:59.214Z,1.83
2022-08-05T08:19:00.925Z,1.81
2022-08-05T08:20:10.553Z,1.11
2022-08-05T08:21:03.957Z,1.47
2022-08-05T08:22:04.940Z,1.53
2022-08-05T08:23:06.250Z,1.93
2022-08-05T08:24:10.638Z,1.64
2022-08-05T08:25:15.967Z,1.5
2022-08-05T08:26:09.453Z,1.14
2022-08-05T08:27:11.335Z,0.97
2022-08-05T08:28:18.565Z,1.5
2022-08-05T08:29:22.091Z,0.94
2022-08-05T08:30:18.949Z,1.62
2022-08-05T08:31:17.570Z,1.67
2022-08-05T08:32:18.637Z,1.66
2022-08-05T08:33:17.327Z,1.41
2022-08-05T08:34:18.943Z,1.46
2022-08-05T08:35:19.301Z,1.01
2022-08-05T08:36:37.322Z,0.99
2022-08-05T08:37:21.365Z,1.86
2022-08-05T08:38:32.400Z,1.58
2022-08-05T08:39:26.029Z,1.78
2022-08-05T08:40:27.295Z,1.29
2022-08-05T08:41:50.536Z,0.83
2022-08-05T08:42:34.645Z,1.79
2022-08-05T08:44:56.536Z,1.2
2022-08-05T08:45:17.622Z,0.72
2022-08-05T08:45:32.293Z,1.84
2022-08-05T08:46:33.281Z,0.92
2022-08-05T08:47:47.998Z,0.9
2022-08-05T08:48:43.766Z,2.29
2022-08-05T08:50:05.458Z,1.48
2022-08-05T08:51:04.298Z,2.04
2022-08-05T08:52:04.470Z,1.61
2022-08-05T08:52:42.827Z,1.19
2022-08-05T08:53:45.303Z,1.75
2022-08-05T08:54:45.956Z,1.7
2022-08-05T08:56:02.303Z,1.58
2022-08-05T08:56:49.631Z,1.48
2022-08-05T08:57:58.219Z,1.25
2022-08-05T08:58:49.545Z,1.63
2022-08-05T08:59:50.303Z,1.38
2022-08-05T09:00:51.494Z,1.02
2022-08-05T09:01:57.166Z,0.87
2022-08-05T09:02:53.319Z,1.57
2022-08-05T09:03:55.736Z,1.15
2022-08-05T09:04:58.698Z,0.99
2022-08-05T09:06:08.216Z,1.4
2022-08-05T09:06:57.341Z,1.46
2022-08-05T09:07:59.140Z,1.37
2022-08-05T09:08:59.546Z,0.78
2022-08-05T09:10:00.394Z,1.13
2022-08-05T09:11:01.373Z,0.99
2022-08-05T09:12:13.521Z,1.42
2022-08-05T09:13:04.558Z,1.73
2022-08-05T09:14:10.422Z,0.91
2022-08-05T09:15:05.904Z,0.85
2022-08-05T09:16:06.531Z,1.11
2022-08-05T09:17:08.116Z,1.1
2022-08-05T09:18:09.087Z,1.55
2022-08-05T09:19:10.365Z,1.41
2022-08-05T09:20:11.650Z,1.34
2022-08-05T09:21:20.587Z,0.55
2022-08-05T09:22:18.082Z,1.38
2022-08-05T09:23:18.401Z,1.09
2022-08-05T09:24:16.411Z,1.1
2022-08-05T09:25:23.748Z,0.94
2022-08-05T09:26:20.631Z,1.46
2022-08-05T09:28:03.652Z,1.56
2022-08-05T09:28:21.360Z,2.02
2022-08-05T09:29:30.853Z,1.38
2022-08-05T09:30:23.749Z,0.68
2022-08-05T09:32:38.912Z,1.23
2022-08-05T09:32:40.501Z,1.49
2022-08-05T09:33:35.043Z,1.12
2022-08-05T09:34:27.392Z,0.64
2022-08-05T09:35:28.534Z,0.29
2022-08-05T09:36:33.238Z,1.23
2022-08-05T09:38:13.167Z,0.56
2022-08-05T09:38:32.392Z,1.16
2022-08-05T09:39:41.716Z,0.83
2022-08-05T09:40:34.377Z,0.29
2022-08-05T09:41:38.341Z,1.22
2022-08-05T09:42:36.391Z,0.58
2022-08-05T09:43:40.355Z,1.22
2022-08-05T09:44:38.413Z,1.52
2022-08-05T09:46:05.449Z,0.94
2022-08-05T09:46:40.439Z,0.98
2022-08-05T09:47:48.997Z,0.68
2022-08-05T09:48:42.407Z,0.83
2022-08-05T09:49:54.958Z,0.89
2022-08-05T09:50:45.328Z,1.5
2022-08-05T09:51:48.720Z,1.41
2022-08-05T09:52:46.418Z,1.03
2022-08-05T09:53:53.320Z,0.35
2022-08-05T09:54:48.415Z,0.28
2022-08-05T09:55:56.068Z,1.62
2022-08-05T09:56:51.700Z,0.57
2022-08-05T09:57:54.335Z,1.07
2022-08-05T09:58:52.422Z,1.58
2022-08-05T09:59:53.399Z,1.38
2022-08-05T10:00:54.477Z,0.61
2022-08-05T10:01:58.124Z,1.09
2022-08-05T10:02:58.962Z,1.16
2022-08-05T10:03:59.956Z,1.33
2022-08-05T10:05:00.633Z,1.08
2022-08-05T10:06:04.755Z,1.09
2022-08-05T10:07:06.104Z,2.12
2022-08-05T10:08:11.456Z,1.68
2022-08-05T10:09:04.973Z,1.75
2022-08-05T10:10:14.746Z,1.39
2022-08-05T10:11:07.450Z,1.5
2022-08-05T10:12:18.433Z,1.11
2022-08-05T10:13:09.801Z,1.11
2022-08-05T10:14:10.722Z,0.87
2022-08-05T10:15:11.495Z,1.24
2022-08-05T10:16:12.979Z,1.91
2022-08-05T10:17:36.790Z,0.83
2022-08-05T10:18:16.630Z,0.75
2022-08-05T10:19:16.480Z,1.06
2022-08-05T10:20:18.209Z,1.07
2022-08-05T10:21:19.139Z,0.64
2022-08-05T10:22:29.582Z,0.63
2022-08-05T10:23:22.106Z,0.49
2022-08-05T10:24:25.040Z,1.16
2022-08-05T10:25:23.483Z,0.62
2022-08-05T10:26:31.796Z,1.45
2022-08-05T10:27:26.005Z,1.19
2022-08-05T10:28:29.575Z,1.02
2022-08-05T10:30:07.420Z,0.92
2022-08-05T10:30:42.194Z,0.59
2022-08-05T10:32:50.031Z,0.56
2022-08-05T10:32:51.347Z,1.28
2022-08-05T10:33:34.350Z,0.75
2022-08-05T10:34:33.534Z,1.06
2022-08-05T10:35:40.504Z,0.72
2022-08-05T10:36:35.627Z,0.79
2022-08-05T10:37:44.335Z,0.69
2022-08-05T10:38:38.596Z,1.22
2022-08-05T10:39:58.767Z,1.05
2022-08-05T10:40:43.554Z,0.95
2022-08-05T10:41:45.052Z,0.38
2022-08-05T10:42:43.732Z,0.78
2022-08-05T10:43:43.514Z,1.13
2022-08-05T10:44:44.542Z,0.79
2022-08-05T10:45:45.512Z,0.52
2022-08-05T10:46:46.795Z,0.59
2022-08-05T10:48:29.299Z,0.72
2022-08-05T10:48:53.173Z,0.5
2022-08-05T10:50:21.085Z,0.63
2022-08-05T10:50:52.574Z,1.61
2022-08-05T10:51:57.804Z,1.28
2022-08-05T10:52:54.806Z,2.27
2022-08-05T10:53:55.533Z,1.89
2022-08-05T10:54:57.255Z,1.14
2022-08-05T10:56:03.874Z,1.25
2022-08-05T10:56:58.558Z,0.85
2022-08-05T10:57:59.629Z,0.68
2022-08-05T10:59:03.811Z,1.91
2022-08-05T11:00:10.091Z,1.19
2022-08-05T11:01:03.159Z,0.66
2022-08-05T11:02:04.867Z,0.98
2022-08-05T11:03:22.941Z,0.86
2022-08-05T11:04:07.371Z,0.77
2022-08-05T11:05:08.719Z,0.25
2022-08-05T11:06:14.876Z,0.64
2022-08-05T11:07:10.549Z,0.55
2022-08-05T11:08:22.166Z,0.95
2022-08-05T11:09:13.145Z,1.58
2022-08-05T11:10:13.590Z,1.19
2022-08-05T11:11:16.675Z,1.34
2022-08-05T11:12:15.888Z,1.41
2022-08-05T11:13:16.575Z,0.74
2022-08-05T11:14:18.585Z,0.49
2022-08-05T11:15:20.975Z,0.97
2022-08-05T11:16:20.628Z,0.86
2022-08-05T11:17:58.473Z,1.07
2022-08-05T11:18:22.591Z,1.17
2022-08-05T11:20:11.682Z,1.39
2022-08-05T11:20:24.590Z,1.44
2022-08-05T11:21:25.591Z,1.49
2022-08-05T11:22:26.613Z,0.61
2022-08-05T11:23:33.117Z,0.97
2022-08-05T11:24:29.886Z,1.47
2022-08-05T11:26:04.009Z,1.12
2022-08-05T11:26:33.123Z,0.99
2022-08-05T11:27:45.880Z,1.24
2022-08-05T11:28:35.963Z,1.21
2022-08-05T11:29:35.584Z,1.02
2022-08-05T11:30:36.606Z,1.11
2022-08-05T11:31:54.671Z,1.12
2022-08-05T11:32:38.611Z,1.33
2022-08-05T11:33:44.092Z,1.02
2022-08-05T11:34:47.264Z,0.69
2022-08-05T11:35:44.604Z,1.63
2022-08-05T11:36:42.782Z,0.9
2022-08-05T11:38:27.535Z,0.68
2022-08-05T11:38:45.611Z,1.52
2022-08-05T11:39:48.160Z,1.35
2022-08-05T11:40:46.629Z,1.03
2022-08-05T11:41:58.393Z,0.83
2022-08-05T11:42:48.588Z,1.14
2022-08-05T11:44:01.174Z,1.85
2022-08-05T11:44:53.569Z,1.67
2022-08-05T11:46:14.851Z,1.28
2022-08-05T11:46:58.892Z,0.96
2022-08-05T11:47:54.634Z,1.17
2022-08-05T11:48:54.646Z,0.3
2022-08-05T11:49:55.693Z,0.38
2022-08-05T11:50:56.657Z,0.91
2022-08-05T11:51:57.978Z,0.86
2022-08-05T11:52:58.681Z,0.24
2022-08-05T11:53:59.662Z,0.28
2022-08-05T11:55:07.026Z,0.73
2022-08-05T11:56:01.683Z,0.49
2022-08-05T11:57:07.763Z,0.55
2022-08-05T11:58:09.090Z,0.94
2022-08-05T11:59:04.670Z,1.27
2022-08-05T12:00:06.554Z,1.57
2022-08-05T12:01:08.293Z,1.46
2022-08-05T12:02:12.078Z,1.17
2022-08-05T12:03:09.679Z,1.09
2022-08-05T12:04:10.668Z,1.41
2022-08-05T12:05:17.779Z,0.63
2022-08-05T12:06:12.673Z,0.14
2022-08-05T12:07:13.656Z,0.4
2022-08-05T12:08:18.092Z,0.51
2022-08-05T12:09:19.868Z,1.02
2022-08-05T12:10:16.678Z,1.14
2022-08-05T12:11:20.394Z,1.41
2022-08-05T12:12:18.685Z,1.43
2022-08-05T12:13:28.242Z,0.91
2022-08-05T12:14:20.681Z,0.91
2022-08-05T12:15:33.222Z,1.24
2022-08-05T12:16:25.643Z,0.54
2022-08-05T12:18:03.506Z,0.4
2022-08-05T12:18:26.600Z,0.26
2022-08-05T12:20:16.532Z,1.38
2022-08-05T12:20:33.358Z,1.73
2022-08-05T12:21:29.727Z,1.28
2022-08-05T12:22:28.723Z,1.93
2022-08-05T12:23:29.991Z,1.04
2022-08-05T12:24:30.718Z,1.41
2022-08-05T12:25:31.713Z,0.98
2022-08-05T12:26:32.746Z,1.48
2022-08-05T12:27:33.775Z,1.09
2022-08-05T12:28:34.799Z,0.86
2022-08-05T12:29:37.920Z,1.6
2022-08-05T12:30:36.722Z,1.67
2022-08-05T12:31:43.583Z,2.35
2022-08-05T12:32:39.732Z,2.35
2022-08-05T12:33:39.799Z,1.18
2022-08-05T12:34:40.722Z,0.85
2022-08-05T12:35:43.053Z,0.78
2022-08-05T12:36:42.815Z,0.76
2022-08-05T12:37:43.777Z,1.07
2022-08-05T12:38:44.772Z,1.13
2022-08-05T12:39:48.672Z,1.34
2022-08-05T12:40:47.035Z,1
2022-08-05T12:41:48.661Z,1.86
2022-08-05T12:42:48.815Z,2.56
2022-08-05T12:43:49.846Z,0.87
2022-08-05T12:44:50.724Z,0.62
2022-08-05T12:45:51.748Z,0.35
2022-08-05T12:46:52.757Z,0.58
2022-08-05T12:48:01.193Z,1.41
2022-08-05T12:48:54.775Z,1.32
2022-08-05T12:50:02.872Z,1.53
2022-08-05T12:50:56.885Z,1.13
2022-08-05T12:52:11.247Z,0.72
2022-08-05T12:52:59.029Z,1.02
2022-08-05T12:53:59.782Z,1.37
2022-08-05T12:55:01.073Z,0.85
2022-08-05T12:56:01.833Z,1.45
2022-08-05T12:57:02.860Z,1.65
2022-08-05T12:58:39.524Z,2.02
2022-08-05T12:59:08.034Z,1.93
2022-08-05T13:00:10.369Z,0.64
2022-08-05T13:01:59.043Z,0.82
2022-08-05T13:02:08.213Z,1.16
2022-08-05T13:03:12.143Z,1.07
2022-08-05T13:04:09.816Z,1.26
2022-08-05T13:05:11.031Z,0.57
2022-08-05T13:06:11.859Z,0.53
2022-08-05T13:07:31.146Z,0.58
2022-08-05T13:08:13.838Z,0.93
2022-08-05T13:09:14.803Z,1.63
2022-08-05T13:10:19.513Z,1.59
2022-08-05T13:11:16.839Z,1.85
2022-08-05T13:12:17.838Z,1.64
2022-08-05T13:14:04.143Z,1.72
2022-08-05T13:14:20.268Z,1.59
2022-08-05T13:15:24.068Z,1.55
2022-08-05T13:16:24.928Z,1.2
2022-08-05T13:17:24.933Z,0.93
2022-08-05T13:18:24.054Z,0.64
2022-08-05T13:19:24.874Z,0.63
2022-08-05T13:20:29.143Z,0.84
2022-08-05T13:21:28.084Z,0.64
2022-08-05T13:22:29.617Z,1.05
2022-08-05T13:23:28.847Z,0.84
2022-08-05T13:24:36.674Z,0.79
2022-08-05T13:25:51.471Z,0.75
2022-08-05T13:26:31.824Z,0.98
2022-08-05T13:27:35.422Z,0.44
2022-08-05T13:28:33.854Z,0.8
2022-08-05T13:29:37.458Z,0.38
2022-08-05T13:30:38.884Z,0.2
2022-08-05T13:32:04.675Z,0.24
2022-08-05T13:32:42.132Z,0.23
2022-08-05T13:34:20.526Z,0.33
2022-08-05T13:34:40.776Z,0.95
2022-08-05T13:35:42.570Z,1.29
2022-08-05T13:36:41.887Z,2.07
2022-08-05T13:37:42.891Z,1.18
2022-08-05T13:38:43.884Z,1.51
2022-08-05T13:40:14.765Z,1.18
2022-08-05T13:40:51.631Z,0.91
2022-08-05T13:41:46.964Z,2.28
2022-08-05T13:42:47.835Z,2.4
2022-08-05T13:43:54.665Z,2.57
2022-08-05T13:44:49.894Z,1.6
2022-08-05T13:45:51.011Z,1.39
2022-08-05T13:47:02.188Z,0.89
2022-08-05T13:48:08.340Z,1.11